sensor_id;sensor_type;location;lat;lon;timestamp;temperature;humidity
26964;DHT22;14521;48.148;-1.656;2023-05-21T00:00:41;21.30;81.90
26964;DHT22;14521;48.148;-1.656;2023-05-21T00:04:04;21.30;81.90
26964;DHT22;14521;48.148;-1.656;2023-05-21T00:07:28;21.20;81.70
26964;DHT22;14521;48.148;-1.656;2023-05-21T00:10:52;21.30;81.80
26964;DHT22;14521;48.148;-1.656;2023-05-21T00:14:14;21.20;81.70
26964;DHT22;14521;48.148;-1.656;2023-05-21T00:17:37;21.30;81.80
26964;DHT22;14521;48.148;-1.656;2023-05-21T00:21:01;21.30;81.80
26964;DHT22;14521;48.148;-1.656;2023-05-21T00:24:23;21.20;81.70
26964;DHT22;14521;48.148;-1.656;2023-05-21T00:27:46;21.20;81.70
26964;DHT22;14521;48.148;-1.656;2023-05-21T00:31:08;21.20;81.70
26964;DHT22;14521;48.148;-1.656;2023-05-21T00:34:31;21.20;81.60
26964;DHT22;14521;48.148;-1.656;2023-05-21T00:37:53;21.20;81.60
26964;DHT22;14521;48.148;-1.656;2023-05-21T00:41:17;21.20;81.60
26964;DHT22;14521;48.148;-1.656;2023-05-21T00:44:39;21.20;81.60
26964;DHT22;14521;48.148;-1.656;2023-05-21T00:48:03;21.20;81.50
26964;DHT22;14521;48.148;-1.656;2023-05-21T00:51:26;21.20;81.60
26964;DHT22;14521;48.148;-1.656;2023-05-21T00:54:51;21.20;81.40
26964;DHT22;14521;48.148;-1.656;2023-05-21T00:58:14;21.20;81.40
26964;DHT22;14521;48.148;-1.656;2023-05-21T01:01:38;21.20;81.50
26964;DHT22;14521;48.148;-1.656;2023-05-21T01:05:01;21.20;81.40
26964;DHT22;14521;48.148;-1.656;2023-05-21T01:08:28;21.20;81.40
26964;DHT22;14521;48.148;-1.656;2023-05-21T01:11:51;21.20;81.40
26964;DHT22;14521;48.148;-1.656;2023-05-21T01:15:14;21.20;81.30
26964;DHT22;14521;48.148;-1.656;2023-05-21T01:18:36;21.20;81.30
26964;DHT22;14521;48.148;-1.656;2023-05-21T01:22:04;21.20;81.30
26964;DHT22;14521;48.148;-1.656;2023-05-21T01:25:27;21.20;81.20
26964;DHT22;14521;48.148;-1.656;2023-05-21T01:28:49;21.20;81.20
26964;DHT22;14521;48.148;-1.656;2023-05-21T01:33:04;21.20;81.20
26964;DHT22;14521;48.148;-1.656;2023-05-21T01:36:16;21.20;81.10
26964;DHT22;14521;48.148;-1.656;2023-05-21T01:39:43;21.10;81.10
26964;DHT22;14521;48.148;-1.656;2023-05-21T01:43:08;21.10;81.10
26964;DHT22;14521;48.148;-1.656;2023-05-21T01:46:33;21.10;81.20
26964;DHT22;14521;48.148;-1.656;2023-05-21T01:49:58;21.10;81.10
26964;DHT22;14521;48.148;-1.656;2023-05-21T01:53:21;21.10;81.00
26964;DHT22;14521;48.148;-1.656;2023-05-21T01:56:44;21.10;81.00
26964;DHT22;14521;48.148;-1.656;2023-05-21T02:00:07;21.10;81.10
26964;DHT22;14521;48.148;-1.656;2023-05-21T02:03:36;21.10;81.00
26964;DHT22;14521;48.148;-1.656;2023-05-21T02:06:59;21.10;81.00
26964;DHT22;14521;48.148;-1.656;2023-05-21T02:10:22;21.10;81.70
26964;DHT22;14521;48.148;-1.656;2023-05-21T02:13:44;21.10;81.00
26964;DHT22;14521;48.148;-1.656;2023-05-21T02:17:07;21.10;81.00
26964;DHT22;14521;48.148;-1.656;2023-05-21T02:20:30;21.10;81.00
26964;DHT22;14521;48.148;-1.656;2023-05-21T02:23:52;21.00;80.90
26964;DHT22;14521;48.148;-1.656;2023-05-21T02:27:15;21.10;80.90
26964;DHT22;14521;48.148;-1.656;2023-05-21T02:30:38;21.00;80.90
26964;DHT22;14521;48.148;-1.656;2023-05-21T02:34:01;21.00;80.80
26964;DHT22;14521;48.148;-1.656;2023-05-21T02:37:25;21.00;80.70
26964;DHT22;14521;48.148;-1.656;2023-05-21T02:40:50;21.00;80.70
26964;DHT22;14521;48.148;-1.656;2023-05-21T02:44:13;21.00;80.70
26964;DHT22;14521;48.148;-1.656;2023-05-21T02:47:35;21.00;80.70
26964;DHT22;14521;48.148;-1.656;2023-05-21T02:51:01;21.00;80.80
26964;DHT22;14521;48.148;-1.656;2023-05-21T02:54:23;21.00;80.70
26964;DHT22;14521;48.148;-1.656;2023-05-21T02:57:46;21.00;80.70
26964;DHT22;14521;48.148;-1.656;2023-05-21T03:01:09;21.00;80.70
26964;DHT22;14521;48.148;-1.656;2023-05-21T03:04:32;21.00;80.60
26964;DHT22;14521;48.148;-1.656;2023-05-21T03:08:00;21.00;80.60
26964;DHT22;14521;48.148;-1.656;2023-05-21T03:11:23;21.00;80.50
26964;DHT22;14521;48.148;-1.656;2023-05-21T03:14:45;21.00;80.50
26964;DHT22;14521;48.148;-1.656;2023-05-21T03:18:07;21.00;80.50
26964;DHT22;14521;48.148;-1.656;2023-05-21T03:21:30;20.90;80.50
26964;DHT22;14521;48.148;-1.656;2023-05-21T03:24:52;20.90;80.50
26964;DHT22;14521;48.148;-1.656;2023-05-21T03:28:16;21.00;80.50
26964;DHT22;14521;48.148;-1.656;2023-05-21T03:31:43;20.90;80.30
26964;DHT22;14521;48.148;-1.656;2023-05-21T03:35:07;21.00;80.40
26964;DHT22;14521;48.148;-1.656;2023-05-21T03:38:30;20.90;80.30
26964;DHT22;14521;48.148;-1.656;2023-05-21T03:41:52;20.90;80.20
26964;DHT22;14521;48.148;-1.656;2023-05-21T03:45:27;21.00;80.40
26964;DHT22;14521;48.148;-1.656;2023-05-21T03:49:06;20.90;80.20
26964;DHT22;14521;48.148;-1.656;2023-05-21T03:52:31;20.90;81.10
26964;DHT22;14521;48.148;-1.656;2023-05-21T03:55:53;20.90;80.30
26964;DHT22;14521;48.148;-1.656;2023-05-21T03:59:18;20.90;80.20
26964;DHT22;14521;48.148;-1.656;2023-05-21T04:02:41;20.90;80.20
26964;DHT22;14521;48.148;-1.656;2023-05-21T04:06:03;20.90;80.20
26964;DHT22;14521;48.148;-1.656;2023-05-21T04:09:26;20.90;80.20
26964;DHT22;14521;48.148;-1.656;2023-05-21T04:12:49;20.90;80.20
26964;DHT22;14521;48.148;-1.656;2023-05-21T04:16:14;20.90;80.20
26964;DHT22;14521;48.148;-1.656;2023-05-21T04:19:41;20.90;80.20
26964;DHT22;14521;48.148;-1.656;2023-05-21T04:23:03;20.90;80.10
26964;DHT22;14521;48.148;-1.656;2023-05-21T04:26:26;20.90;80.10
26964;DHT22;14521;48.148;-1.656;2023-05-21T04:29:49;20.90;80.10
26964;DHT22;14521;48.148;-1.656;2023-05-21T04:33:12;20.90;80.00
26964;DHT22;14521;48.148;-1.656;2023-05-21T04:36:39;20.90;80.00
26964;DHT22;14521;48.148;-1.656;2023-05-21T04:40:03;20.90;80.00
26964;DHT22;14521;48.148;-1.656;2023-05-21T04:43:25;20.90;80.00
26964;DHT22;14521;48.148;-1.656;2023-05-21T04:46:50;20.90;80.00
26964;DHT22;14521;48.148;-1.656;2023-05-21T04:50:13;20.90;80.00
26964;DHT22;14521;48.148;-1.656;2023-05-21T04:53:36;20.90;80.00
26964;DHT22;14521;48.148;-1.656;2023-05-21T04:56:59;20.80;79.90
26964;DHT22;14521;48.148;-1.656;2023-05-21T05:00:22;20.90;80.00
26964;DHT22;14521;48.148;-1.656;2023-05-21T05:03:47;20.90;80.10
26964;DHT22;14521;48.148;-1.656;2023-05-21T05:07:09;20.80;80.10
26964;DHT22;14521;48.148;-1.656;2023-05-21T05:10:32;20.80;80.00
26964;DHT22;14521;48.148;-1.656;2023-05-21T05:13:54;20.80;80.00
26964;DHT22;14521;48.148;-1.656;2023-05-21T05:17:17;20.80;80.10
26964;DHT22;14521;48.148;-1.656;2023-05-21T05:20:39;20.90;80.50
26964;DHT22;14521;48.148;-1.656;2023-05-21T05:24:02;20.90;80.80
26964;DHT22;14521;48.148;-1.656;2023-05-21T05:27:26;20.90;80.30
26964;DHT22;14521;48.148;-1.656;2023-05-21T05:30:49;20.90;80.40
26964;DHT22;14521;48.148;-1.656;2023-05-21T05:34:17;20.90;80.90
26964;DHT22;14521;48.148;-1.656;2023-05-21T05:37:39;21.00;80.80
26964;DHT22;14521;48.148;-1.656;2023-05-21T05:41:02;21.00;81.20
26964;DHT22;14521;48.148;-1.656;2023-05-21T05:44:26;21.10;81.20
26964;DHT22;14521;48.148;-1.656;2023-05-21T05:47:48;21.20;81.60
26964;DHT22;14521;48.148;-1.656;2023-05-21T05:51:11;21.20;81.20
26964;DHT22;14521;48.148;-1.656;2023-05-21T05:54:33;21.20;81.00
26964;DHT22;14521;48.148;-1.656;2023-05-21T05:57:55;21.30;81.20
26964;DHT22;14521;48.148;-1.656;2023-05-21T06:01:18;21.30;81.10
26964;DHT22;14521;48.148;-1.656;2023-05-21T06:04:40;21.30;81.00
26964;DHT22;14521;48.148;-1.656;2023-05-21T06:08:03;21.40;81.00
26964;DHT22;14521;48.148;-1.656;2023-05-21T06:11:26;21.50;81.50
26964;DHT22;14521;48.148;-1.656;2023-05-21T06:14:48;21.50;81.40
26964;DHT22;14521;48.148;-1.656;2023-05-21T06:18:12;21.50;80.80
26964;DHT22;14521;48.148;-1.656;2023-05-21T06:21:34;21.60;81.10
26964;DHT22;14521;48.148;-1.656;2023-05-21T06:24:59;21.70;81.10
26964;DHT22;14521;48.148;-1.656;2023-05-21T06:28:21;21.70;82.00
26964;DHT22;14521;48.148;-1.656;2023-05-21T06:31:44;21.80;82.80
26964;DHT22;14521;48.148;-1.656;2023-05-21T06:35:07;21.70;80.70
26964;DHT22;14521;48.148;-1.656;2023-05-21T06:38:30;21.70;80.30
26964;DHT22;14521;48.148;-1.656;2023-05-21T06:41:54;21.70;79.90
26964;DHT22;14521;48.148;-1.656;2023-05-21T06:45:33;21.70;81.10
26964;DHT22;14521;48.148;-1.656;2023-05-21T06:49:02;21.40;78.60
26964;DHT22;14521;48.148;-1.656;2023-05-21T06:52:24;20.90;80.40
26964;DHT22;14521;48.148;-1.656;2023-05-21T06:55:50;20.60;82.90
26964;DHT22;14521;48.148;-1.656;2023-05-21T06:59:22;20.50;83.50
26964;DHT22;14521;48.148;-1.656;2023-05-21T07:02:44;20.50;82.90
26964;DHT22;14521;48.148;-1.656;2023-05-21T07:06:06;20.40;84.00
26964;DHT22;14521;48.148;-1.656;2023-05-21T07:09:30;20.30;84.40
26964;DHT22;14521;48.148;-1.656;2023-05-21T07:12:52;20.40;84.60
26964;DHT22;14521;48.148;-1.656;2023-05-21T07:15:55;20.30;83.80
26964;DHT22;14521;48.148;-1.656;2023-05-21T07:18:59;20.20;84.40
26964;DHT22;14521;48.148;-1.656;2023-05-21T07:22:01;20.20;84.30
26964;DHT22;14521;48.148;-1.656;2023-05-21T07:25:04;20.20;84.60
26964;DHT22;14521;48.148;-1.656;2023-05-21T07:28:06;20.20;84.80
26964;DHT22;14521;48.148;-1.656;2023-05-21T07:31:27;20.30;85.00
26964;DHT22;14521;48.148;-1.656;2023-05-21T07:34:50;20.50;84.80
26964;DHT22;14521;48.148;-1.656;2023-05-21T07:38:16;20.50;84.20
26964;DHT22;14521;48.148;-1.656;2023-05-21T07:41:39;20.50;85.10
26964;DHT22;14521;48.148;-1.656;2023-05-21T07:44:42;20.60;84.70
26964;DHT22;14521;48.148;-1.656;2023-05-21T07:47:44;20.60;83.70
26964;DHT22;14521;48.148;-1.656;2023-05-21T07:50:48;20.60;83.70
26964;DHT22;14521;48.148;-1.656;2023-05-21T07:53:53;20.50;83.70
26964;DHT22;14521;48.148;-1.656;2023-05-21T07:57:22;20.50;83.90
26964;DHT22;14521;48.148;-1.656;2023-05-21T08:00:51;20.50;84.20
26964;DHT22;14521;48.148;-1.656;2023-05-21T08:04:13;20.60;84.20
26964;DHT22;14521;48.148;-1.656;2023-05-21T08:07:36;20.60;84.10
26964;DHT22;14521;48.148;-1.656;2023-05-21T08:10:59;20.60;84.30
26964;DHT22;14521;48.148;-1.656;2023-05-21T08:14:22;20.60;84.50
26964;DHT22;14521;48.148;-1.656;2023-05-21T08:17:45;20.40;84.80
26964;DHT22;14521;48.148;-1.656;2023-05-21T08:21:08;20.30;85.50
26964;DHT22;14521;48.148;-1.656;2023-05-21T08:24:30;20.30;85.70
26964;DHT22;14521;48.148;-1.656;2023-05-21T08:27:53;20.20;85.90
26964;DHT22;14521;48.148;-1.656;2023-05-21T08:31:17;20.20;86.30
26964;DHT22;14521;48.148;-1.656;2023-05-21T08:34:40;20.30;86.10
26964;DHT22;14521;48.148;-1.656;2023-05-21T08:38:14;20.30;86.20
26964;DHT22;14521;48.148;-1.656;2023-05-21T08:41:49;20.40;86.50
26964;DHT22;14521;48.148;-1.656;2023-05-21T08:45:22;20.60;85.80
26964;DHT22;14521;48.148;-1.656;2023-05-21T08:48:45;20.50;85.50
26964;DHT22;14521;48.148;-1.656;2023-05-21T08:52:08;20.60;85.30
26964;DHT22;14521;48.148;-1.656;2023-05-21T08:55:31;20.60;85.40
26964;DHT22;14521;48.148;-1.656;2023-05-21T08:58:54;20.50;85.70
26964;DHT22;14521;48.148;-1.656;2023-05-21T09:02:21;20.50;85.70
26964;DHT22;14521;48.148;-1.656;2023-05-21T09:05:46;20.60;86.00
26964;DHT22;14521;48.148;-1.656;2023-05-21T09:09:35;20.70;85.70
26964;DHT22;14521;48.148;-1.656;2023-05-21T09:13:02;20.70;85.60
26964;DHT22;14521;48.148;-1.656;2023-05-21T09:16:25;20.80;85.20
26964;DHT22;14521;48.148;-1.656;2023-05-21T09:20:13;20.90;85.40
26964;DHT22;14521;48.148;-1.656;2023-05-21T09:23:54;21.00;85.10
26964;DHT22;14521;48.148;-1.656;2023-05-21T09:27:18;20.80;85.00
26964;DHT22;14521;48.148;-1.656;2023-05-21T09:30:45;20.70;85.00
26964;DHT22;14521;48.148;-1.656;2023-05-21T09:34:07;20.80;86.00
26964;DHT22;14521;48.148;-1.656;2023-05-21T09:37:30;20.90;86.00
26964;DHT22;14521;48.148;-1.656;2023-05-21T09:40:56;21.00;85.70
26964;DHT22;14521;48.148;-1.656;2023-05-21T09:44:20;21.10;85.50
26964;DHT22;14521;48.148;-1.656;2023-05-21T09:47:43;21.20;85.30
26964;DHT22;14521;48.148;-1.656;2023-05-21T09:51:12;21.30;85.20
26964;DHT22;14521;48.148;-1.656;2023-05-21T09:54:34;21.30;85.00
26964;DHT22;14521;48.148;-1.656;2023-05-21T09:57:58;21.30;84.70
26964;DHT22;14521;48.148;-1.656;2023-05-21T10:01:23;21.40;84.70
26964;DHT22;14521;48.148;-1.656;2023-05-21T10:04:48;21.40;84.70
26964;DHT22;14521;48.148;-1.656;2023-05-21T10:08:11;21.50;84.70
26964;DHT22;14521;48.148;-1.656;2023-05-21T10:11:35;21.50;84.90
26964;DHT22;14521;48.148;-1.656;2023-05-21T10:15:02;21.50;84.40
26964;DHT22;14521;48.148;-1.656;2023-05-21T10:18:26;21.50;84.70
26964;DHT22;14521;48.148;-1.656;2023-05-21T10:21:49;21.50;84.80
26964;DHT22;14521;48.148;-1.656;2023-05-21T10:25:14;21.60;84.70
26964;DHT22;14521;48.148;-1.656;2023-05-21T10:28:37;21.60;84.80
26964;DHT22;14521;48.148;-1.656;2023-05-21T10:32:00;21.60;84.60
26964;DHT22;14521;48.148;-1.656;2023-05-21T10:35:23;21.60;84.30
26964;DHT22;14521;48.148;-1.656;2023-05-21T10:38:46;21.70;84.50
26964;DHT22;14521;48.148;-1.656;2023-05-21T10:57:14;21.70;84.50
26964;DHT22;14521;48.148;-1.656;2023-05-21T11:00:38;21.70;84.40
26964;DHT22;14521;48.148;-1.656;2023-05-21T11:04:02;21.70;84.50
26964;DHT22;14521;48.148;-1.656;2023-05-21T11:11:49;21.70;84.60
26964;DHT22;14521;48.148;-1.656;2023-05-21T11:15:14;21.70;84.60
26964;DHT22;14521;48.148;-1.656;2023-05-21T11:21:59;21.70;84.60
26964;DHT22;14521;48.148;-1.656;2023-05-21T11:25:22;21.70;85.30
26964;DHT22;14521;48.148;-1.656;2023-05-21T11:28:44;21.80;84.60
26964;DHT22;14521;48.148;-1.656;2023-05-21T11:32:08;21.80;84.70
26964;DHT22;14521;48.148;-1.656;2023-05-21T11:35:30;21.80;84.60
26964;DHT22;14521;48.148;-1.656;2023-05-21T11:39:10;21.80;84.80
26964;DHT22;14521;48.148;-1.656;2023-05-21T11:42:37;21.80;84.80
26964;DHT22;14521;48.148;-1.656;2023-05-21T11:46:00;21.70;85.00
26964;DHT22;14521;48.148;-1.656;2023-05-21T11:49:23;21.80;85.10
26964;DHT22;14521;48.148;-1.656;2023-05-21T11:52:46;21.80;85.00
26964;DHT22;14521;48.148;-1.656;2023-05-21T11:56:08;21.80;85.10
26964;DHT22;14521;48.148;-1.656;2023-05-21T11:59:30;21.80;85.00
26964;DHT22;14521;48.148;-1.656;2023-05-21T12:02:54;21.80;85.00
26964;DHT22;14521;48.148;-1.656;2023-05-21T12:06:25;21.80;85.10
26964;DHT22;14521;48.148;-1.656;2023-05-21T12:09:49;21.80;85.10
26964;DHT22;14521;48.148;-1.656;2023-05-21T12:13:13;21.80;85.10
26964;DHT22;14521;48.148;-1.656;2023-05-21T12:16:36;21.80;86.10
26964;DHT22;14521;48.148;-1.656;2023-05-21T12:20:00;21.80;85.40
26964;DHT22;14521;48.148;-1.656;2023-05-21T12:23:23;21.80;85.50
26964;DHT22;14521;48.148;-1.656;2023-05-21T12:26:45;21.90;85.50
26964;DHT22;14521;48.148;-1.656;2023-05-21T12:30:09;21.90;85.50
26964;DHT22;14521;48.148;-1.656;2023-05-21T12:33:35;21.80;85.50
26964;DHT22;14521;48.148;-1.656;2023-05-21T12:36:57;21.80;85.60
26964;DHT22;14521;48.148;-1.656;2023-05-21T12:40:19;21.80;85.60
26964;DHT22;14521;48.148;-1.656;2023-05-21T12:43:42;21.80;85.70
26964;DHT22;14521;48.148;-1.656;2023-05-21T12:47:04;21.80;85.80
26964;DHT22;14521;48.148;-1.656;2023-05-21T12:50:27;21.80;85.90
26964;DHT22;14521;48.148;-1.656;2023-05-21T12:53:50;21.80;85.90
26964;DHT22;14521;48.148;-1.656;2023-05-21T12:57:14;21.80;85.90
26964;DHT22;14521;48.148;-1.656;2023-05-21T13:00:36;21.90;86.00
26964;DHT22;14521;48.148;-1.656;2023-05-21T13:03:59;21.80;85.90
26964;DHT22;14521;48.148;-1.656;2023-05-21T13:07:23;21.90;86.80
26964;DHT22;14521;48.148;-1.656;2023-05-21T13:10:45;21.90;86.00
26964;DHT22;14521;48.148;-1.656;2023-05-21T13:14:08;21.80;86.00
26964;DHT22;14521;48.148;-1.656;2023-05-21T13:17:30;21.80;86.10
26964;DHT22;14521;48.148;-1.656;2023-05-21T13:20:53;21.80;86.10
26964;DHT22;14521;48.148;-1.656;2023-05-21T13:24:15;21.80;86.10
26964;DHT22;14521;48.148;-1.656;2023-05-21T13:27:38;21.80;86.20
26964;DHT22;14521;48.148;-1.656;2023-05-21T13:31:00;21.80;86.30
26964;DHT22;14521;48.148;-1.656;2023-05-21T13:34:23;21.80;86.30
26964;DHT22;14521;48.148;-1.656;2023-05-21T13:37:46;21.80;86.20
26964;DHT22;14521;48.148;-1.656;2023-05-21T13:41:09;21.80;86.30
26964;DHT22;14521;48.148;-1.656;2023-05-21T13:44:32;21.80;86.30
26964;DHT22;14521;48.148;-1.656;2023-05-21T13:47:57;21.80;86.40
26964;DHT22;14521;48.148;-1.656;2023-05-21T13:51:19;21.80;86.30
26964;DHT22;14521;48.148;-1.656;2023-05-21T13:54:59;21.80;86.40
26964;DHT22;14521;48.148;-1.656;2023-05-21T13:58:22;21.80;86.40
26964;DHT22;14521;48.148;-1.656;2023-05-21T14:01:44;21.80;86.40
26964;DHT22;14521;48.148;-1.656;2023-05-21T14:05:07;21.80;86.40
26964;DHT22;14521;48.148;-1.656;2023-05-21T14:08:29;21.80;86.40
26964;DHT22;14521;48.148;-1.656;2023-05-21T14:11:53;21.80;86.40
26964;DHT22;14521;48.148;-1.656;2023-05-21T14:15:16;21.80;86.40
26964;DHT22;14521;48.148;-1.656;2023-05-21T14:18:38;21.80;86.40
26964;DHT22;14521;48.148;-1.656;2023-05-21T14:22:00;21.80;86.60
26964;DHT22;14521;48.148;-1.656;2023-05-21T14:25:23;21.80;86.60
26964;DHT22;14521;48.148;-1.656;2023-05-21T14:28:45;21.80;87.20
26964;DHT22;14521;48.148;-1.656;2023-05-21T14:32:07;21.80;87.10
26964;DHT22;14521;48.148;-1.656;2023-05-21T14:35:30;21.90;87.40
26964;DHT22;14521;48.148;-1.656;2023-05-21T14:38:52;21.80;86.30
26964;DHT22;14521;48.148;-1.656;2023-05-21T14:42:14;21.80;87.60
26964;DHT22;14521;48.148;-1.656;2023-05-21T14:45:37;21.70;87.70
26964;DHT22;14521;48.148;-1.656;2023-05-21T14:48:59;21.60;87.30
26964;DHT22;14521;48.148;-1.656;2023-05-21T14:52:22;21.60;86.90
26964;DHT22;14521;48.148;-1.656;2023-05-21T14:55:45;21.60;86.60
26964;DHT22;14521;48.148;-1.656;2023-05-21T14:59:07;21.50;86.70
26964;DHT22;14521;48.148;-1.656;2023-05-21T15:02:32;21.60;86.90
26964;DHT22;14521;48.148;-1.656;2023-05-21T15:05:54;21.60;86.10
26964;DHT22;14521;48.148;-1.656;2023-05-21T15:09:17;21.70;85.00
26964;DHT22;14521;48.148;-1.656;2023-05-21T15:12:39;21.70;86.10
26964;DHT22;14521;48.148;-1.656;2023-05-21T15:16:02;21.70;86.60
26964;DHT22;14521;48.148;-1.656;2023-05-21T15:19:25;21.70;86.50
26964;DHT22;14521;48.148;-1.656;2023-05-21T15:22:47;21.70;86.30
26964;DHT22;14521;48.148;-1.656;2023-05-21T15:26:10;21.70;84.70
26964;DHT22;14521;48.148;-1.656;2023-05-21T15:29:32;21.70;84.60
26964;DHT22;14521;48.148;-1.656;2023-05-21T15:32:54;21.70;85.60
26964;DHT22;14521;48.148;-1.656;2023-05-21T15:36:17;21.60;86.30
26964;DHT22;14521;48.148;-1.656;2023-05-21T15:39:42;21.60;86.40
26964;DHT22;14521;48.148;-1.656;2023-05-21T15:43:05;21.60;86.00
26964;DHT22;14521;48.148;-1.656;2023-05-21T15:46:27;21.60;85.60
26964;DHT22;14521;48.148;-1.656;2023-05-21T15:49:50;21.60;85.80
26964;DHT22;14521;48.148;-1.656;2023-05-21T15:53:12;21.60;85.70
26964;DHT22;14521;48.148;-1.656;2023-05-21T15:56:35;21.60;85.70
26964;DHT22;14521;48.148;-1.656;2023-05-21T15:59:57;21.60;85.90
26964;DHT22;14521;48.148;-1.656;2023-05-21T16:03:19;21.60;84.80
26964;DHT22;14521;48.148;-1.656;2023-05-21T16:06:42;21.50;85.10
26964;DHT22;14521;48.148;-1.656;2023-05-21T16:10:08;21.50;84.90
26964;DHT22;14521;48.148;-1.656;2023-05-21T16:13:31;21.50;84.40
26964;DHT22;14521;48.148;-1.656;2023-05-21T16:16:54;21.50;83.50
26964;DHT22;14521;48.148;-1.656;2023-05-21T16:20:16;21.50;83.20
26964;DHT22;14521;48.148;-1.656;2023-05-21T16:23:39;21.50;83.20
26964;DHT22;14521;48.148;-1.656;2023-05-21T16:27:02;21.50;82.40
26964;DHT22;14521;48.148;-1.656;2023-05-21T16:30:24;21.50;84.10
26964;DHT22;14521;48.148;-1.656;2023-05-21T16:33:47;21.50;82.40
26964;DHT22;14521;48.148;-1.656;2023-05-21T16:37:09;21.40;81.50
26964;DHT22;14521;48.148;-1.656;2023-05-21T16:40:32;21.40;81.60
26964;DHT22;14521;48.148;-1.656;2023-05-21T16:43:54;21.40;81.90
26964;DHT22;14521;48.148;-1.656;2023-05-21T16:47:17;21.40;82.10
26964;DHT22;14521;48.148;-1.656;2023-05-21T16:50:39;21.30;81.90
26964;DHT22;14521;48.148;-1.656;2023-05-21T16:54:02;21.30;81.80
26964;DHT22;14521;48.148;-1.656;2023-05-21T16:57:25;21.30;81.40
26964;DHT22;14521;48.148;-1.656;2023-05-21T17:00:48;21.30;81.40
26964;DHT22;14521;48.148;-1.656;2023-05-21T17:04:10;21.30;81.90
26964;DHT22;14521;48.148;-1.656;2023-05-21T17:07:33;21.40;81.20
26964;DHT22;14521;48.148;-1.656;2023-05-21T17:10:55;21.40;80.70
26964;DHT22;14521;48.148;-1.656;2023-05-21T17:14:17;21.30;81.40
26964;DHT22;14521;48.148;-1.656;2023-05-21T17:17:54;21.30;80.80
26964;DHT22;14521;48.148;-1.656;2023-05-21T17:21:17;21.30;80.60
26964;DHT22;14521;48.148;-1.656;2023-05-21T17:24:40;21.30;81.60
26964;DHT22;14521;48.148;-1.656;2023-05-21T17:28:03;21.30;81.10
26964;DHT22;14521;48.148;-1.656;2023-05-21T17:31:25;21.30;81.20
26964;DHT22;14521;48.148;-1.656;2023-05-21T17:34:48;21.30;81.00
26964;DHT22;14521;48.148;-1.656;2023-05-21T17:38:10;21.30;80.70
26964;DHT22;14521;48.148;-1.656;2023-05-21T17:41:32;21.30;80.80
26964;DHT22;14521;48.148;-1.656;2023-05-21T17:44:55;21.30;80.30
26964;DHT22;14521;48.148;-1.656;2023-05-21T17:48:17;21.20;80.30
26964;DHT22;14521;48.148;-1.656;2023-05-21T17:51:40;21.20;80.40
26964;DHT22;14521;48.148;-1.656;2023-05-21T17:55:02;21.20;80.70
26964;DHT22;14521;48.148;-1.656;2023-05-21T17:58:24;21.10;80.70
26964;DHT22;14521;48.148;-1.656;2023-05-21T18:01:47;21.20;79.90
26964;DHT22;14521;48.148;-1.656;2023-05-21T18:05:09;21.20;79.50
26964;DHT22;14521;48.148;-1.656;2023-05-21T18:08:31;21.20;79.40
26964;DHT22;14521;48.148;-1.656;2023-05-21T18:11:54;21.20;79.60
26964;DHT22;14521;48.148;-1.656;2023-05-21T18:15:16;21.20;79.30
26964;DHT22;14521;48.148;-1.656;2023-05-21T18:18:38;21.10;79.60
26964;DHT22;14521;48.148;-1.656;2023-05-21T18:22:01;21.20;79.90
26964;DHT22;14521;48.148;-1.656;2023-05-21T18:25:23;21.20;79.80
26964;DHT22;14521;48.148;-1.656;2023-05-21T18:28:46;21.10;79.70
26964;DHT22;14521;48.148;-1.656;2023-05-21T18:32:09;21.10;79.70
26964;DHT22;14521;48.148;-1.656;2023-05-21T18:35:32;21.10;80.20
26964;DHT22;14521;48.148;-1.656;2023-05-21T18:38:56;21.10;81.00
26964;DHT22;14521;48.148;-1.656;2023-05-21T18:42:18;21.10;81.30
26964;DHT22;14521;48.148;-1.656;2023-05-21T18:45:40;21.00;81.50
26964;DHT22;14521;48.148;-1.656;2023-05-21T18:49:04;21.00;82.00
26964;DHT22;14521;48.148;-1.656;2023-05-21T18:52:26;21.00;82.30
26964;DHT22;14521;48.148;-1.656;2023-05-21T18:55:49;20.90;82.40
26964;DHT22;14521;48.148;-1.656;2023-05-21T18:59:11;21.00;82.80
26964;DHT22;14521;48.148;-1.656;2023-05-21T19:02:34;21.00;83.10
26964;DHT22;14521;48.148;-1.656;2023-05-21T19:05:57;21.10;83.10
26964;DHT22;14521;48.148;-1.656;2023-05-21T19:09:19;21.40;83.40
26964;DHT22;14521;48.148;-1.656;2023-05-21T19:12:42;21.40;82.90
26964;DHT22;14521;48.148;-1.656;2023-05-21T19:16:04;21.40;82.80
26964;DHT22;14521;48.148;-1.656;2023-05-21T19:19:32;21.40;82.80
26964;DHT22;14521;48.148;-1.656;2023-05-21T19:22:54;21.40;82.80
26964;DHT22;14521;48.148;-1.656;2023-05-21T19:26:17;21.40;82.80
26964;DHT22;14521;48.148;-1.656;2023-05-21T19:29:39;21.40;82.80
26964;DHT22;14521;48.148;-1.656;2023-05-21T19:33:02;21.40;82.90
26964;DHT22;14521;48.148;-1.656;2023-05-21T19:36:24;21.40;85.00
26964;DHT22;14521;48.148;-1.656;2023-05-21T19:39:46;21.40;84.70
26964;DHT22;14521;48.148;-1.656;2023-05-21T19:43:11;21.40;84.80
26964;DHT22;14521;48.148;-1.656;2023-05-21T19:46:34;21.40;84.20
26964;DHT22;14521;48.148;-1.656;2023-05-21T19:49:56;21.40;84.20
26964;DHT22;14521;48.148;-1.656;2023-05-21T19:53:19;21.40;83.30
26964;DHT22;14521;48.148;-1.656;2023-05-21T19:56:41;21.40;83.10
26964;DHT22;14521;48.148;-1.656;2023-05-21T20:00:03;21.30;83.10
26964;DHT22;14521;48.148;-1.656;2023-05-21T20:03:33;21.30;82.90
26964;DHT22;14521;48.148;-1.656;2023-05-21T20:06:57;21.20;81.40
26964;DHT22;14521;48.148;-1.656;2023-05-21T20:10:19;21.30;83.50
26964;DHT22;14521;48.148;-1.656;2023-05-21T20:13:41;21.30;84.20
26964;DHT22;14521;48.148;-1.656;2023-05-21T20:17:09;21.40;84.20
26964;DHT22;14521;48.148;-1.656;2023-05-21T20:20:32;21.40;85.50
26964;DHT22;14521;48.148;-1.656;2023-05-21T20:23:58;21.50;85.80
26964;DHT22;14521;48.148;-1.656;2023-05-21T20:27:20;21.40;85.60
26964;DHT22;14521;48.148;-1.656;2023-05-21T20:30:54;21.50;86.00
26964;DHT22;14521;48.148;-1.656;2023-05-21T20:34:19;21.50;86.60
26964;DHT22;14521;48.148;-1.656;2023-05-21T20:37:41;21.50;86.70
26964;DHT22;14521;48.148;-1.656;2023-05-21T20:41:04;21.50;86.80
26964;DHT22;14521;48.148;-1.656;2023-05-21T20:44:26;21.50;86.90
26964;DHT22;14521;48.148;-1.656;2023-05-21T20:47:50;21.50;86.70
26964;DHT22;14521;48.148;-1.656;2023-05-21T20:51:12;21.50;86.80
26964;DHT22;14521;48.148;-1.656;2023-05-21T20:54:35;21.50;86.80
26964;DHT22;14521;48.148;-1.656;2023-05-21T20:57:57;21.50;86.80
26964;DHT22;14521;48.148;-1.656;2023-05-21T21:01:20;21.50;86.70
26964;DHT22;14521;48.148;-1.656;2023-05-21T21:04:42;21.50;85.30
26964;DHT22;14521;48.148;-1.656;2023-05-21T21:08:05;21.50;86.00
26964;DHT22;14521;48.148;-1.656;2023-05-21T21:11:29;21.50;85.30
26964;DHT22;14521;48.148;-1.656;2023-05-21T21:14:52;21.50;85.00
26964;DHT22;14521;48.148;-1.656;2023-05-21T21:18:15;21.50;84.80
26964;DHT22;14521;48.148;-1.656;2023-05-21T21:21:37;21.50;84.70
26964;DHT22;14521;48.148;-1.656;2023-05-21T21:25:00;21.50;84.70